createdAt,value
2018-08-28T00:00:45.566Z,18.01
2018-08-28T00:01:45.748Z,18.03
2018-08-28T00:02:45.926Z,18.03
2018-08-28T00:03:46.100Z,17.94
2018-08-28T00:04:46.278Z,17.95
2018-08-28T00:05:46.473Z,17.86
2018-08-28T00:06:46.649Z,17.79
2018-08-28T00:07:46.834Z,17.78
2018-08-28T00:08:47.018Z,17.64
2018-08-28T00:09:47.188Z,17.57
2018-08-28T00:10:47.361Z,17.60
2018-08-28T00:11:47.552Z,17.64
2018-08-28T00:12:47.724Z,17.54
2018-08-28T00:13:47.904Z,17.49
2018-08-28T00:14:48.086Z,17.52
2018-08-28T00:15:48.261Z,17.48
2018-08-28T00:16:48.443Z,17.42
2018-08-28T00:17:48.617Z,17.48
2018-08-28T00:18:48.796Z,17.52
2018-08-28T00:19:49.224Z,17.60
2018-08-28T00:20:49.161Z,17.56
2018-08-28T00:21:49.342Z,17.65
2018-08-28T00:22:49.528Z,17.60
2018-08-28T00:23:49.687Z,17.60
2018-08-28T00:24:49.867Z,17.63
2018-08-28T00:25:50.044Z,17.72
2018-08-28T00:26:50.211Z,17.70
2018-08-28T00:27:50.393Z,17.82
2018-08-28T00:28:50.574Z,17.78
2018-08-28T00:29:50.753Z,17.89
2018-08-28T00:30:50.932Z,17.80
2018-08-28T00:31:51.139Z,17.86
2018-08-28T00:32:51.281Z,17.82
2018-08-28T00:33:51.454Z,17.80
2018-08-28T00:34:51.637Z,17.94
2018-08-28T00:35:51.826Z,17.92
2018-08-28T00:36:51.970Z,17.94
2018-08-28T00:37:52.155Z,17.86
2018-08-28T00:38:52.335Z,17.86
2018-08-28T00:39:52.511Z,17.89
2018-08-28T00:40:52.691Z,17.92
2018-08-28T00:41:52.874Z,17.89
2018-08-28T00:42:53.041Z,18.01
2018-08-28T00:43:53.215Z,18.04
2018-08-28T00:44:53.397Z,17.95
2018-08-28T00:45:53.568Z,17.97
2018-08-28T00:46:53.741Z,17.86
2018-08-28T00:47:53.921Z,17.90
2018-08-28T00:48:54.109Z,17.90
2018-08-28T00:49:54.275Z,17.94
2018-08-28T00:50:54.458Z,17.86
2018-08-28T00:51:54.635Z,17.90
2018-08-28T00:52:54.820Z,17.94
2018-08-28T00:53:54.994Z,18.00
2018-08-28T00:54:55.166Z,17.87
2018-08-28T00:55:55.341Z,17.87
2018-08-28T00:56:55.513Z,17.90
2018-08-28T00:57:55.683Z,17.78
2018-08-28T00:58:55.852Z,17.90
2018-08-28T00:59:56.280Z,17.90
2018-08-28T01:00:56.204Z,17.94
2018-08-28T01:01:56.392Z,17.89
2018-08-28T01:02:56.571Z,17.94
2018-08-28T01:03:56.755Z,17.89
2018-08-28T01:04:56.931Z,17.87
2018-08-28T01:05:57.111Z,17.90
2018-08-28T01:06:57.289Z,17.85
2018-08-28T01:07:57.450Z,17.92
2018-08-28T01:08:57.639Z,17.97
2018-08-28T01:09:57.816Z,17.94
2018-08-28T01:10:57.988Z,17.92
2018-08-28T01:11:58.169Z,17.94
2018-08-28T01:12:58.349Z,17.89
2018-08-28T01:13:58.519Z,17.83
2018-08-28T01:14:58.699Z,17.87
2018-08-28T01:15:58.861Z,17.79
2018-08-28T01:16:59.051Z,17.86
2018-08-28T01:17:59.245Z,17.72
2018-08-28T01:18:59.397Z,17.71
2018-08-28T01:19:59.585Z,17.65
2018-08-28T01:20:59.757Z,17.65
2018-08-28T01:21:59.935Z,17.57
2018-08-28T01:23:00.125Z,17.51
2018-08-28T01:24:00.288Z,17.52
2018-08-28T01:25:00.475Z,17.51
2018-08-28T01:26:00.653Z,17.46
2018-08-28T01:27:00.836Z,17.44
2018-08-28T01:28:01.005Z,17.38
2018-08-28T01:29:01.194Z,17.42
2018-08-28T01:30:01.373Z,17.41
2018-08-28T01:31:01.562Z,17.34
2018-08-28T01:32:01.722Z,17.31
2018-08-28T01:33:01.915Z,17.29
2018-08-28T01:34:02.088Z,17.27
2018-08-28T01:35:02.249Z,17.24
2018-08-28T01:36:02.431Z,17.16
2018-08-28T01:37:02.613Z,17.08
2018-08-28T01:38:02.773Z,17.11
2018-08-28T01:39:02.964Z,17.09
2018-08-28T01:40:03.142Z,17.01
2018-08-28T01:41:03.327Z,17.01
2018-08-28T01:42:03.499Z,16.97
2018-08-28T01:43:03.677Z,17.04
2018-08-28T01:44:03.862Z,16.89
2018-08-28T01:45:04.064Z,16.87
2018-08-28T01:47:04.406Z,16.74
2018-08-28T01:48:04.588Z,16.78
2018-08-28T01:49:04.761Z,16.72
2018-08-28T01:50:04.937Z,16.71
2018-08-28T01:51:05.117Z,16.65
2018-08-28T01:52:05.301Z,16.64
2018-08-28T01:53:05.467Z,16.71
2018-08-28T01:54:05.646Z,16.74
2018-08-28T01:55:05.819Z,16.75
2018-08-28T01:56:05.998Z,16.66
2018-08-28T01:57:06.175Z,16.66
2018-08-28T01:58:06.352Z,16.69
2018-08-28T01:59:06.520Z,16.66
2018-08-28T02:00:06.701Z,16.71
2018-08-28T02:01:06.884Z,16.66
2018-08-28T02:02:07.057Z,16.64
2018-08-28T02:03:07.235Z,16.68
2018-08-28T02:04:07.407Z,16.68
2018-08-28T02:05:07.586Z,16.68
2018-08-28T02:06:07.767Z,16.68
2018-08-28T02:08:08.119Z,16.69
2018-08-28T02:09:08.297Z,16.66
2018-08-28T02:10:08.470Z,16.66
2018-08-28T02:11:08.656Z,16.66
2018-08-28T02:12:08.834Z,16.66
2018-08-28T02:13:09.071Z,16.66
2018-08-28T02:14:09.186Z,16.65
2018-08-28T02:15:09.352Z,16.68
2018-08-28T02:16:09.565Z,16.66
2018-08-28T02:17:09.743Z,16.74
2018-08-28T02:18:09.919Z,16.72
2018-08-28T02:19:10.092Z,16.66
2018-08-28T02:20:10.278Z,16.71
2018-08-28T02:21:10.854Z,16.78
2018-08-28T02:22:10.634Z,16.78
2018-08-28T02:23:10.817Z,16.83
2018-08-28T02:24:10.990Z,16.84
2018-08-28T02:25:11.171Z,16.84
2018-08-28T02:26:11.350Z,16.96
2018-08-28T02:27:11.523Z,16.83
2018-08-28T02:28:11.701Z,16.84
2018-08-28T02:29:11.888Z,16.86
2018-08-28T02:30:12.066Z,17.04
2018-08-28T02:31:12.232Z,17.05
2018-08-28T02:32:12.417Z,17.05
2018-08-28T02:33:12.586Z,17.08
2018-08-28T02:34:12.770Z,17.02
2018-08-28T02:35:12.949Z,16.97
2018-08-28T02:36:13.126Z,16.99
2018-08-28T02:37:13.307Z,16.96
2018-08-28T02:38:13.481Z,16.96
2018-08-28T02:39:13.664Z,16.96
2018-08-28T02:40:13.842Z,16.90
2018-08-28T02:41:14.024Z,16.86
2018-08-28T02:42:14.202Z,16.76
2018-08-28T02:43:14.382Z,16.81
2018-08-28T02:45:14.738Z,16.79
2018-08-28T02:46:14.927Z,16.75
2018-08-28T02:47:15.106Z,16.79
2018-08-28T02:48:15.285Z,16.74
2018-08-28T02:49:15.464Z,16.66
2018-08-28T02:50:15.653Z,16.72
2018-08-28T02:51:15.816Z,16.65
2018-08-28T02:52:16.009Z,16.54
2018-08-28T02:53:16.191Z,16.51
2018-08-28T02:54:16.370Z,16.58
2018-08-28T02:55:16.566Z,16.50
2018-08-28T02:56:16.818Z,16.58
2018-08-28T02:57:16.914Z,16.68
2018-08-28T02:59:17.272Z,16.65
2018-08-28T03:00:17.454Z,16.57
2018-08-28T03:01:17.633Z,16.58
2018-08-28T03:02:17.809Z,16.41
2018-08-28T03:03:17.987Z,16.33
2018-08-28T03:04:18.165Z,16.35
2018-08-28T03:05:18.345Z,16.08
2018-08-28T03:06:18.529Z,16.09
2018-08-28T03:07:18.708Z,16.13
2018-08-28T03:08:18.893Z,16.15
2018-08-28T03:09:19.060Z,16.20
2018-08-28T03:10:19.234Z,16.17
2018-08-28T03:11:19.414Z,16.17
2018-08-28T03:12:19.588Z,16.16
2018-08-28T03:13:19.768Z,16.10
2018-08-28T03:14:19.951Z,16.09
2018-08-28T03:15:20.141Z,16.16
2018-08-28T03:16:20.313Z,16.15
2018-08-28T03:17:20.496Z,16.13
2018-08-28T03:18:20.680Z,16.24
2018-08-28T03:19:20.867Z,16.16
2018-08-28T03:20:21.039Z,16.16
2018-08-28T03:21:21.216Z,16.08
2018-08-28T03:22:21.400Z,16.05
2018-08-28T03:23:21.583Z,16.00
2018-08-28T03:24:21.763Z,16.04
2018-08-28T03:25:21.930Z,16.01
2018-08-28T03:26:22.112Z,16.01
2018-08-28T03:27:22.287Z,16.10
2018-08-28T03:28:22.462Z,16.09
2018-08-28T03:29:22.641Z,16.04
2018-08-28T03:30:22.827Z,15.95
2018-08-28T03:31:23.012Z,16.00
2018-08-28T03:32:23.180Z,15.95
2018-08-28T03:33:23.365Z,15.75
2018-08-28T03:34:23.534Z,15.82
2018-08-28T03:35:23.712Z,15.73
2018-08-28T03:36:23.885Z,15.70
2018-08-28T03:37:24.070Z,15.67
2018-08-28T03:38:24.507Z,15.64
2018-08-28T03:39:24.426Z,15.68
2018-08-28T03:40:24.608Z,15.62
2018-08-28T03:41:24.783Z,15.65
2018-08-28T03:42:24.961Z,15.68
2018-08-28T03:43:25.145Z,15.70
2018-08-28T03:44:25.320Z,15.75
2018-08-28T03:45:25.505Z,15.70
2018-08-28T03:46:25.681Z,15.62
2018-08-28T03:47:25.859Z,15.70
2018-08-28T03:48:26.036Z,15.70
2018-08-28T03:49:26.215Z,15.55
2018-08-28T03:50:26.388Z,15.59
2018-08-28T03:51:26.567Z,15.57
2018-08-28T03:52:26.986Z,15.57
2018-08-28T03:53:26.929Z,15.57
2018-08-28T03:54:27.118Z,15.51
2018-08-28T03:55:27.343Z,15.33
2018-08-28T03:56:27.464Z,15.43
2018-08-28T03:57:27.643Z,15.44
2018-08-28T03:58:27.824Z,15.44
2018-08-28T03:59:28.006Z,15.36
2018-08-28T04:00:28.184Z,15.35
2018-08-28T04:01:28.361Z,15.33
2018-08-28T04:02:28.541Z,15.27
2018-08-28T04:03:28.715Z,15.35
2018-08-28T04:04:28.892Z,15.35
2018-08-28T04:05:29.077Z,15.33
2018-08-28T04:06:29.259Z,15.18
2018-08-28T04:07:29.433Z,15.21
2018-08-28T04:08:29.614Z,15.04
2018-08-28T04:09:29.800Z,15.03
2018-08-28T04:10:29.972Z,14.94
2018-08-28T04:11:30.158Z,14.96
2018-08-28T04:12:30.333Z,14.94
2018-08-28T04:13:30.500Z,14.91
2018-08-28T04:14:30.702Z,14.91
2018-08-28T04:15:30.866Z,14.96
2018-08-28T04:16:31.048Z,14.96
2018-08-28T04:17:31.229Z,14.89
2018-08-28T04:18:31.398Z,14.78
2018-08-28T04:19:31.576Z,14.54
2018-08-28T04:20:31.760Z,14.45
2018-08-28T04:21:31.943Z,14.50
2018-08-28T04:22:32.142Z,14.45
2018-08-28T04:23:32.298Z,14.55
2018-08-28T04:24:32.475Z,14.41
2018-08-28T04:25:32.897Z,14.47
2018-08-28T04:26:32.838Z,14.48
2018-08-28T04:27:33.007Z,14.41
2018-08-28T04:28:33.183Z,14.41
2018-08-28T04:29:33.365Z,14.36
2018-08-28T04:30:33.698Z,14.44
2018-08-28T04:31:33.719Z,14.41
2018-08-28T04:32:33.895Z,14.37
2018-08-28T04:33:34.077Z,14.35
2018-08-28T04:34:34.250Z,14.30
2018-08-28T04:35:34.429Z,14.30
2018-08-28T04:36:34.604Z,14.15
2018-08-28T04:37:34.783Z,14.37
2018-08-28T04:38:34.954Z,14.37
2018-08-28T04:39:35.133Z,14.40
2018-08-28T04:40:35.312Z,14.25
2018-08-28T04:41:35.500Z,14.35
2018-08-28T04:42:35.676Z,14.29
2018-08-28T04:43:35.863Z,14.37
2018-08-28T04:44:36.030Z,14.37
2018-08-28T04:45:36.207Z,14.41
2018-08-28T04:46:36.384Z,14.44
2018-08-28T04:47:36.569Z,14.40
2018-08-28T04:48:37.045Z,14.41
2018-08-28T04:49:36.926Z,14.41
2018-08-28T04:50:37.096Z,14.37
2018-08-28T04:51:37.273Z,14.36
2018-08-28T04:52:37.449Z,14.32
2018-08-28T04:53:37.637Z,14.35
2018-08-28T04:54:37.817Z,14.35
2018-08-28T04:55:38.057Z,14.30
2018-08-28T04:56:38.166Z,14.32
2018-08-28T04:57:38.348Z,14.36
2018-08-28T04:58:38.527Z,14.40
2018-08-28T04:59:38.705Z,14.32
2018-08-28T05:00:38.960Z,14.36
2018-08-28T05:01:39.056Z,14.44
2018-08-28T05:02:39.231Z,14.41
2018-08-28T05:03:39.412Z,14.48
2018-08-28T05:04:39.588Z,14.48
2018-08-28T05:05:39.772Z,14.58
2018-08-28T05:06:39.961Z,14.60
2018-08-28T05:07:40.121Z,14.55
2018-08-28T05:08:40.301Z,14.59
2018-08-28T05:09:40.740Z,14.62
2018-08-28T05:10:40.663Z,14.47
2018-08-28T05:11:40.883Z,14.44
2018-08-28T05:12:41.020Z,14.45
2018-08-28T05:13:41.200Z,14.50
2018-08-28T05:14:41.379Z,14.43
2018-08-28T05:15:41.552Z,14.45
2018-08-28T05:16:41.735Z,14.51
2018-08-28T05:17:41.916Z,14.58
2018-08-28T05:18:42.339Z,14.68
2018-08-28T05:19:42.269Z,14.37
2018-08-28T05:20:42.453Z,14.44
2018-08-28T05:21:43.221Z,14.54
2018-08-28T05:22:42.795Z,14.48
2018-08-28T05:23:42.979Z,14.48
2018-08-28T05:24:43.148Z,14.66
2018-08-28T05:25:43.325Z,14.60
2018-08-28T05:26:43.508Z,14.73
2018-08-28T05:27:43.688Z,14.85
2018-08-28T05:28:43.863Z,14.94
2018-08-28T05:29:44.122Z,14.96
2018-08-28T05:30:44.216Z,15.10
2018-08-28T05:31:44.388Z,15.14
2018-08-28T05:32:44.581Z,15.36
2018-08-28T05:33:44.747Z,15.36
2018-08-28T05:34:44.916Z,15.51
2018-08-28T05:35:45.097Z,15.76
2018-08-28T05:36:45.280Z,15.83
2018-08-28T05:37:45.456Z,16.04
2018-08-28T05:38:45.637Z,16.17
2018-08-28T05:39:45.821Z,16.28
2018-08-28T05:40:46.003Z,16.58
2018-08-28T05:42:46.357Z,16.99
2018-08-28T05:43:46.534Z,17.04
2018-08-28T05:44:46.719Z,17.20
2018-08-28T05:45:46.903Z,17.38
2018-08-28T05:46:47.084Z,17.48
2018-08-28T05:47:47.264Z,17.56
2018-08-28T05:48:47.440Z,17.29
2018-08-28T05:49:47.625Z,17.26
2018-08-28T05:50:47.807Z,17.33
2018-08-28T05:51:47.999Z,17.67
2018-08-28T05:52:48.177Z,17.94
2018-08-28T05:53:48.656Z,17.59
2018-08-28T05:54:48.560Z,18.04
2018-08-28T05:55:48.753Z,18.00
2018-08-28T05:56:48.903Z,17.94
2018-08-28T05:57:49.091Z,18.31
2018-08-28T05:58:49.269Z,18.47
2018-08-28T05:59:49.456Z,18.07
2018-08-28T06:00:49.640Z,18.15
2018-08-28T06:01:49.828Z,18.23
2018-08-28T06:02:50.009Z,18.41
2018-08-28T06:03:50.156Z,18.66
2018-08-28T06:04:50.337Z,18.63
2018-08-28T06:05:50.522Z,18.49
2018-08-28T06:06:50.698Z,18.84
2018-08-28T06:07:50.873Z,19.16
2018-08-28T06:08:51.139Z,19.15
2018-08-28T06:09:51.240Z,19.69
2018-08-28T06:10:51.420Z,19.51
2018-08-28T06:11:51.604Z,20.02
2018-08-28T06:12:51.786Z,20.11
2018-08-28T06:13:51.977Z,20.02
2018-08-28T06:14:52.274Z,20.14
2018-08-28T06:15:52.330Z,20.55
2018-08-28T06:16:52.514Z,20.44
2018-08-28T06:17:52.672Z,20.65
2018-08-28T06:18:52.856Z,20.87
2018-08-28T06:19:53.049Z,21.24
2018-08-28T06:20:53.235Z,21.37
2018-08-28T06:21:53.418Z,21.37
2018-08-28T06:22:53.625Z,21.66
2018-08-28T06:23:53.784Z,21.61
2018-08-28T06:24:53.974Z,21.40
2018-08-28T06:25:54.158Z,21.54
2018-08-28T06:26:54.321Z,21.51
2018-08-28T06:27:54.518Z,21.27
2018-08-28T06:28:54.694Z,21.64
2018-08-28T06:29:54.882Z,21.37
2018-08-28T06:30:55.069Z,21.58
2018-08-28T06:31:55.262Z,21.83
2018-08-28T06:32:55.432Z,22.06
2018-08-28T06:33:55.648Z,21.52
2018-08-28T06:34:55.808Z,21.72
2018-08-28T06:35:55.997Z,21.99
2018-08-28T06:36:56.184Z,22.07
2018-08-28T06:37:56.369Z,22.18
2018-08-28T06:38:56.557Z,22.51
2018-08-28T06:39:56.738Z,22.30
2018-08-28T06:40:56.926Z,21.82
2018-08-28T06:41:57.124Z,22.00
2018-08-28T06:42:57.423Z,22.06
2018-08-28T06:43:57.532Z,22.11
2018-08-28T06:44:57.621Z,22.08
2018-08-28T06:45:57.811Z,21.91
2018-08-28T06:46:58.000Z,22.13
2018-08-28T06:47:58.177Z,21.95
2018-08-28T06:48:58.367Z,21.79
2018-08-28T06:49:58.814Z,22.11
2018-08-28T06:50:58.775Z,21.93
2018-08-28T06:51:58.945Z,21.98
2018-08-28T06:52:59.113Z,22.25
2018-08-28T06:53:59.301Z,22.36
2018-08-28T06:54:59.495Z,22.22
2018-08-28T06:55:59.780Z,21.96
2018-08-28T06:56:59.920Z,22.23
2018-08-28T06:58:00.013Z,22.39
2018-08-28T06:59:00.198Z,22.25
2018-08-28T07:00:00.353Z,22.38
2018-08-28T07:01:00.549Z,22.44
2018-08-28T07:02:00.717Z,22.72
2018-08-28T07:03:00.908Z,22.66
2018-08-28T07:05:01.279Z,22.81
2018-08-28T07:06:01.453Z,22.93
2018-08-28T07:07:01.646Z,22.75
2018-08-28T07:08:01.908Z,22.72
2018-08-28T07:09:02.021Z,22.88
2018-08-28T07:10:02.191Z,22.44
2018-08-28T07:11:02.377Z,22.41
2018-08-28T07:12:02.559Z,22.70
2018-08-28T07:13:02.735Z,22.91
2018-08-28T07:14:02.932Z,23.18
2018-08-28T07:15:03.113Z,23.08
2018-08-28T07:16:03.291Z,22.94
2018-08-28T07:17:03.470Z,23.00
2018-08-28T07:18:03.662Z,22.91
2018-08-28T07:19:03.833Z,23.05
2018-08-28T07:20:04.034Z,23.10
2018-08-28T07:21:04.251Z,22.81
2018-08-28T07:22:04.425Z,22.55
2018-08-28T07:23:04.601Z,22.69
2018-08-28T07:24:04.777Z,22.76
2018-08-28T07:25:04.961Z,22.54
2018-08-28T07:26:05.197Z,22.84
2018-08-28T07:27:05.322Z,23.00
2018-08-28T07:28:05.500Z,23.15
2018-08-28T07:29:05.681Z,23.34
2018-08-28T07:30:05.860Z,23.34
2018-08-28T07:31:06.066Z,23.46
2018-08-28T07:32:06.196Z,23.59
2018-08-28T07:33:06.387Z,23.77
2018-08-28T07:34:06.577Z,23.86
2018-08-28T07:35:06.761Z,23.80
2018-08-28T07:36:06.935Z,24.02
2018-08-28T07:37:07.134Z,24.05
2018-08-28T07:38:07.311Z,23.88
2018-08-28T07:39:07.499Z,23.78
2018-08-28T07:40:07.676Z,23.78
2018-08-28T07:41:07.857Z,23.76
2018-08-28T07:42:08.044Z,23.61
2018-08-28T07:43:08.229Z,23.66
2018-08-28T07:44:08.414Z,23.92
2018-08-28T07:45:08.593Z,23.93
2018-08-28T07:46:08.783Z,23.92
2018-08-28T07:47:08.975Z,23.99
2018-08-28T07:48:09.185Z,24.18
2018-08-28T07:49:09.283Z,24.30
2018-08-28T07:50:09.438Z,24.14
2018-08-28T07:51:09.627Z,23.76
2018-08-28T07:52:09.801Z,23.69
2018-08-28T07:53:10.296Z,23.43
2018-08-28T07:54:10.171Z,23.47
2018-08-28T07:55:10.352Z,23.63
2018-08-28T07:56:10.539Z,23.31
2018-08-28T07:57:10.720Z,23.56
2018-08-28T07:58:11.181Z,22.80
2018-08-28T07:59:11.078Z,23.23
2018-08-28T08:00:11.278Z,23.32
2018-08-28T08:01:11.462Z,23.58
2018-08-28T08:02:11.652Z,24.03
2018-08-28T08:03:11.852Z,23.87
2018-08-28T08:04:11.998Z,24.36
2018-08-28T08:05:12.205Z,24.43
2018-08-28T08:06:12.363Z,24.48
2018-08-28T08:07:12.544Z,24.66
2018-08-28T08:08:12.730Z,23.69
2018-08-28T08:09:12.911Z,23.73
2018-08-28T08:10:13.098Z,23.87
2018-08-28T08:11:13.260Z,24.20
2018-08-28T08:12:13.442Z,24.40
2018-08-28T08:13:13.667Z,24.54
2018-08-28T08:14:13.795Z,24.88
2018-08-28T08:15:13.975Z,25.18
2018-08-28T08:16:14.247Z,24.89
2018-08-28T08:17:14.372Z,24.77
2018-08-28T08:18:14.543Z,24.08
2018-08-28T08:19:14.702Z,24.02
2018-08-28T08:20:14.905Z,24.43
2018-08-28T08:21:15.068Z,25.01
2018-08-28T08:22:15.275Z,25.14
2018-08-28T08:23:15.438Z,25.65
2018-08-28T08:24:15.631Z,25.95
2018-08-28T08:25:15.827Z,25.77
2018-08-28T08:27:16.208Z,26.10
2018-08-28T08:28:16.577Z,25.93
2018-08-28T08:29:16.551Z,26.00
2018-08-28T08:30:16.762Z,26.29
2018-08-28T08:31:16.965Z,26.29
2018-08-28T08:32:17.128Z,26.52
2018-08-28T08:33:17.309Z,26.16
2018-08-28T08:34:17.508Z,23.65
2018-08-28T08:35:17.717Z,24.42
2018-08-28T08:36:17.870Z,24.42
2018-08-28T08:37:18.051Z,24.80
2018-08-28T08:38:18.341Z,24.98
2018-08-28T08:39:18.443Z,25.36
2018-08-28T08:40:18.609Z,25.55
2018-08-28T08:41:18.790Z,25.16
2018-08-28T08:42:18.966Z,25.38
2018-08-28T08:43:19.145Z,25.70
2018-08-28T08:44:19.343Z,25.53
2018-08-28T08:45:19.508Z,25.87
2018-08-28T08:46:19.704Z,25.99
2018-08-28T08:47:19.891Z,25.26
2018-08-28T08:48:20.112Z,24.70
2018-08-28T08:49:20.258Z,24.73
2018-08-28T08:50:20.450Z,24.65
2018-08-28T08:51:20.627Z,24.77
2018-08-28T08:52:20.902Z,25.28
2018-08-28T08:53:20.970Z,24.70
2018-08-28T08:54:21.153Z,25.14
2018-08-28T08:55:21.319Z,25.18
2018-08-28T08:56:21.503Z,25.59
2018-08-28T08:57:21.748Z,25.77
2018-08-28T08:58:21.855Z,25.62
2018-08-28T08:59:22.043Z,26.21
2018-08-28T09:00:22.223Z,26.55
2018-08-28T09:01:22.401Z,26.65
2018-08-28T09:02:22.584Z,26.26
2018-08-28T09:03:22.773Z,25.55
2018-08-28T09:04:22.964Z,25.54
2018-08-28T09:05:23.158Z,25.29
2018-08-28T09:06:23.446Z,25.65
2018-08-28T09:07:23.500Z,26.19
2018-08-28T09:08:23.685Z,26.63
2018-08-28T09:09:23.855Z,26.33
2018-08-28T09:10:24.066Z,26.80
2018-08-28T09:11:24.210Z,26.78
2018-08-28T09:12:24.423Z,26.92
2018-08-28T09:13:24.675Z,26.90
2018-08-28T09:14:24.777Z,24.33
2018-08-28T09:15:24.951Z,24.14
2018-08-28T09:16:25.144Z,23.88
2018-08-28T09:17:25.343Z,23.78
2018-08-28T09:18:25.504Z,23.28
2018-08-28T09:19:25.794Z,24.17
2018-08-28T09:20:25.870Z,24.35
2018-08-28T09:21:26.050Z,24.53
2018-08-28T09:22:26.237Z,24.60
2018-08-28T09:23:26.420Z,25.13
2018-08-28T09:24:26.596Z,25.41
2018-08-28T09:25:26.794Z,25.65
2018-08-28T09:26:26.968Z,25.36
2018-08-28T09:27:27.151Z,25.54
2018-08-28T09:28:27.340Z,25.11
2018-08-28T09:29:27.552Z,25.62
2018-08-28T09:30:27.714Z,25.98
2018-08-28T09:31:27.990Z,25.06
2018-08-28T09:32:28.336Z,24.85
2018-08-28T09:33:28.274Z,24.39
2018-08-28T09:34:28.474Z,23.93
2018-08-28T09:35:28.655Z,23.96
2018-08-28T09:36:28.849Z,24.26
2018-08-28T09:37:29.024Z,24.18
2018-08-28T09:38:29.293Z,24.26
2018-08-28T09:39:29.401Z,23.69
2018-08-28T09:40:29.587Z,23.31
2018-08-28T09:41:29.775Z,23.48
2018-08-28T09:42:29.957Z,23.55
2018-08-28T09:43:30.146Z,23.50
2018-08-28T09:45:30.503Z,23.66
2018-08-28T09:46:30.690Z,23.58
2018-08-28T09:47:30.883Z,23.47
2018-08-28T09:48:31.132Z,23.54
2018-08-28T09:49:31.235Z,23.68
2018-08-28T09:50:31.437Z,23.66
2018-08-28T09:51:31.591Z,23.71
2018-08-28T09:52:31.770Z,23.86
2018-08-28T09:53:31.953Z,23.92
2018-08-28T09:54:32.133Z,23.95
2018-08-28T09:55:32.320Z,23.98
2018-08-28T09:56:32.527Z,23.98
2018-08-28T09:57:32.668Z,24.11
2018-08-28T09:58:32.858Z,24.24
2018-08-28T09:59:33.045Z,24.28
2018-08-28T10:00:33.211Z,24.14
2018-08-28T10:01:33.400Z,24.08
2018-08-28T10:02:33.605Z,24.14
2018-08-28T10:03:33.787Z,24.26
2018-08-28T10:04:33.951Z,24.03
2018-08-28T10:05:34.131Z,23.74
2018-08-28T10:06:34.310Z,23.87
2018-08-28T10:07:34.489Z,23.47
2018-08-28T10:08:34.665Z,23.43
2018-08-28T10:09:34.862Z,23.37
2018-08-28T10:10:35.044Z,23.61
2018-08-28T10:11:35.223Z,23.76
2018-08-28T10:12:35.395Z,23.69
2018-08-28T10:13:35.570Z,23.96
2018-08-28T10:14:35.765Z,24.48
2018-08-28T10:15:35.989Z,24.68
2018-08-28T10:16:36.163Z,25.40
2018-08-28T10:17:36.352Z,25.65
2018-08-28T10:18:36.529Z,26.40
2018-08-28T10:19:36.713Z,26.47
2018-08-28T10:20:36.895Z,26.96
2018-08-28T10:21:37.094Z,27.05
2018-08-28T10:22:37.272Z,26.31
2018-08-28T10:23:37.464Z,24.99
2018-08-28T10:24:37.703Z,25.54
2018-08-28T10:25:37.821Z,26.00
2018-08-28T10:26:37.999Z,25.78
2018-08-28T10:27:38.194Z,25.59
2018-08-28T10:28:38.373Z,25.38
2018-08-28T10:29:38.822Z,25.11
2018-08-28T10:30:38.743Z,25.41
2018-08-28T10:31:38.914Z,25.14
2018-08-28T10:32:39.096Z,25.10
2018-08-28T10:33:39.283Z,25.13
2018-08-28T10:34:39.446Z,25.22
2018-08-28T10:35:39.629Z,25.59
2018-08-28T10:36:39.837Z,25.41
2018-08-28T10:37:39.988Z,25.68
2018-08-28T10:39:40.357Z,25.36
2018-08-28T10:40:40.546Z,25.35
2018-08-28T10:41:40.732Z,25.17
2018-08-28T10:42:40.909Z,25.17
2018-08-28T10:43:41.095Z,24.76
2018-08-28T10:44:41.285Z,24.42
2018-08-28T10:45:41.477Z,24.30
2018-08-28T10:46:41.785Z,24.24
2018-08-28T10:47:41.832Z,24.40
2018-08-28T10:48:42.305Z,24.36
2018-08-28T10:49:42.190Z,24.42
2018-08-28T10:50:42.381Z,24.14
2018-08-28T10:51:42.558Z,24.54
2018-08-28T10:52:42.779Z,24.85
2018-08-28T10:53:42.928Z,24.86
2018-08-28T10:54:43.135Z,24.96
2018-08-28T10:55:43.282Z,24.23
2018-08-28T10:56:43.480Z,24.36
2018-08-28T10:57:43.662Z,23.98
2018-08-28T10:58:43.923Z,24.28
2018-08-28T10:59:44.038Z,24.16
2018-08-28T11:00:44.220Z,24.54
2018-08-28T11:01:44.404Z,24.58
2018-08-28T11:02:44.867Z,24.73
2018-08-28T11:03:44.772Z,24.88
2018-08-28T11:04:44.960Z,25.03
2018-08-28T11:05:45.136Z,25.13
2018-08-28T11:06:45.307Z,25.21
2018-08-28T11:07:45.508Z,25.16
2018-08-28T11:08:45.717Z,25.25
2018-08-28T11:09:45.884Z,25.23
2018-08-28T11:10:46.079Z,25.41
2018-08-28T11:11:46.239Z,25.31
2018-08-28T11:12:46.414Z,25.11
2018-08-28T11:13:46.617Z,24.77
2018-08-28T11:14:46.820Z,24.66
2018-08-28T11:15:47.006Z,24.60
2018-08-28T11:16:47.190Z,24.55
2018-08-28T11:17:47.368Z,24.54
2018-08-28T11:18:47.550Z,24.53
2018-08-28T11:19:47.753Z,24.53
2018-08-28T11:20:47.916Z,23.81
2018-08-28T11:21:48.095Z,23.91
2018-08-28T11:22:48.352Z,23.81
2018-08-28T11:23:48.476Z,23.62
2018-08-28T11:24:48.668Z,23.44
2018-08-28T11:25:48.835Z,23.40
2018-08-28T11:26:49.289Z,23.13
2018-08-28T11:27:49.187Z,23.44
2018-08-28T11:28:49.369Z,23.61
2018-08-28T11:29:49.529Z,23.69
2018-08-28T11:30:49.711Z,23.95
2018-08-28T11:31:49.903Z,24.24
2018-08-28T11:32:50.073Z,24.45
2018-08-28T11:33:50.232Z,24.54
2018-08-28T11:34:50.427Z,24.91
2018-08-28T11:35:50.667Z,25.11
2018-08-28T11:36:50.804Z,25.23
2018-08-28T11:37:50.987Z,25.26
2018-08-28T11:38:51.186Z,25.04
2018-08-28T11:39:51.385Z,25.14
2018-08-28T11:40:51.825Z,25.21
2018-08-28T11:41:51.757Z,25.35
2018-08-28T11:42:51.954Z,25.48
2018-08-28T11:43:52.123Z,25.46
2018-08-28T11:44:52.319Z,25.47
2018-08-28T11:45:52.511Z,25.60
2018-08-28T11:46:52.679Z,25.51
2018-08-28T11:47:52.886Z,25.38
2018-08-28T11:48:53.052Z,25.35
2018-08-28T11:49:53.234Z,25.50
2018-08-28T11:50:53.415Z,25.53
2018-08-28T11:51:53.609Z,25.36
2018-08-28T11:52:53.779Z,25.25
2018-08-28T11:53:53.956Z,25.44
2018-08-28T11:54:54.125Z,25.43
2018-08-28T11:55:54.318Z,25.41
2018-08-28T11:56:54.493Z,25.54
2018-08-28T11:57:54.725Z,25.75
2018-08-28T11:58:54.879Z,25.44
2018-08-28T11:59:55.049Z,24.99
2018-08-28T12:00:55.301Z,24.81
2018-08-28T12:01:55.523Z,24.84
2018-08-28T12:02:55.691Z,25.11
2018-08-28T12:03:55.868Z,25.38
2018-08-28T12:04:56.125Z,25.58
2018-08-28T12:05:56.235Z,25.23
2018-08-28T12:06:56.504Z,25.32
2018-08-28T12:07:56.591Z,25.43
2018-08-28T12:08:56.769Z,25.73
2018-08-28T12:09:56.943Z,25.77
2018-08-28T12:10:57.140Z,25.83
2018-08-28T12:11:57.326Z,25.81
2018-08-28T12:12:57.573Z,25.73
2018-08-28T12:13:57.673Z,25.66
2018-08-28T12:14:57.852Z,25.87
2018-08-28T12:15:58.048Z,25.84
2018-08-28T12:16:58.227Z,25.87
2018-08-28T12:17:58.410Z,25.93
2018-08-28T12:18:58.599Z,25.99
2018-08-28T12:19:58.772Z,26.03
2018-08-28T12:20:59.100Z,26.09
2018-08-28T12:21:59.137Z,26.15
2018-08-28T12:22:59.329Z,26.16
2018-08-28T12:23:59.507Z,26.29
2018-08-28T12:24:59.703Z,25.35
2018-08-28T12:25:59.886Z,24.61
2018-08-28T12:27:00.044Z,24.70
2018-08-28T12:28:00.258Z,24.54
2018-08-28T12:29:00.423Z,24.78
2018-08-28T12:30:00.598Z,24.99
2018-08-28T12:31:00.791Z,25.18
2018-08-28T12:32:00.977Z,25.28
2018-08-28T12:33:01.156Z,25.36
2018-08-28T12:34:01.343Z,25.41
2018-08-28T12:35:01.521Z,25.21
2018-08-28T12:36:01.700Z,25.44
2018-08-28T12:37:01.922Z,25.33
2018-08-28T12:38:02.074Z,25.44
2018-08-28T12:39:02.264Z,25.66
2018-08-28T12:40:02.454Z,25.80
2018-08-28T12:41:02.633Z,25.73
2018-08-28T12:42:02.812Z,25.84
2018-08-28T12:43:03.003Z,25.87
2018-08-28T12:44:03.296Z,26.05
2018-08-28T12:45:03.358Z,25.96
2018-08-28T12:46:03.531Z,26.10
2018-08-28T12:47:03.706Z,26.29
2018-08-28T12:48:03.896Z,26.21
2018-08-28T12:50:04.256Z,26.43
2018-08-28T12:51:04.487Z,26.43
2018-08-28T12:52:04.616Z,26.51
2018-08-28T12:53:04.802Z,26.56
2018-08-28T12:54:05.012Z,26.62
2018-08-28T12:55:05.270Z,26.45
2018-08-28T12:56:05.356Z,26.52
2018-08-28T12:57:05.551Z,26.41
2018-08-28T12:58:05.733Z,26.21
2018-08-28T12:59:05.925Z,25.69
2018-08-28T13:00:06.091Z,25.47
2018-08-28T13:01:06.264Z,25.41
2018-08-28T13:02:06.518Z,25.63
2018-08-28T13:03:06.648Z,25.70
2018-08-28T13:04:06.790Z,25.23
2018-08-28T13:05:06.972Z,24.99